createdAt,value
2019-04-03T00:01:17.530Z,21.70
2019-04-03T00:03:46.167Z,21.80
2019-04-03T00:06:14.821Z,21.80
2019-04-03T00:08:43.494Z,21.80
2019-04-03T00:11:13.102Z,21.80
2019-04-03T00:13:42.435Z,21.90
2019-04-03T00:16:11.469Z,21.90
2019-04-03T00:18:40.132Z,21.90
2019-04-03T00:21:08.867Z,21.90
2019-04-03T00:23:37.522Z,22.00
2019-04-03T00:26:06.182Z,21.90
2019-04-03T00:28:34.815Z,22.00
2019-04-03T00:31:03.590Z,22.00
2019-04-03T00:33:32.246Z,22.00
2019-04-03T00:36:00.870Z,22.00
2019-04-03T00:38:29.498Z,22.00
2019-04-03T00:40:58.182Z,22.00
2019-04-03T00:43:26.888Z,22.00
2019-04-03T00:45:55.595Z,22.00
2019-04-03T00:48:25.782Z,22.00
2019-04-03T00:50:56.390Z,22.00
2019-04-03T00:53:25.946Z,22.00
2019-04-03T00:55:56.486Z,22.00
2019-04-03T00:58:36.354Z,22.00
2019-04-03T01:01:06.508Z,22.00
2019-04-03T01:03:35.152Z,22.00
2019-04-03T01:06:03.815Z,22.00
2019-04-03T01:08:32.456Z,21.90
2019-04-03T01:11:01.094Z,21.90
2019-04-03T01:13:31.285Z,21.90
2019-04-03T01:16:02.447Z,21.90
2019-04-03T01:18:34.356Z,21.90
2019-04-03T01:21:01.996Z,21.90
2019-04-03T01:23:30.953Z,21.90
2019-04-03T01:26:00.376Z,21.90
2019-04-03T01:28:29.232Z,21.90
2019-04-03T01:30:57.903Z,21.90
2019-04-03T01:33:26.639Z,21.90
2019-04-03T01:35:55.563Z,21.90
2019-04-03T01:38:24.215Z,21.80
2019-04-03T01:40:52.870Z,21.80
2019-04-03T01:43:23.090Z,21.80
2019-04-03T01:45:51.900Z,21.80
2019-04-03T01:48:20.577Z,21.80
2019-04-03T01:50:49.210Z,21.80
2019-04-03T01:53:17.859Z,21.80
2019-04-03T01:55:46.491Z,21.80
2019-04-03T01:58:15.158Z,21.80
2019-04-03T02:00:43.875Z,21.80
2019-04-03T02:03:12.498Z,21.80
2019-04-03T02:05:43.294Z,21.70
2019-04-03T02:08:14.242Z,21.70
2019-04-03T02:10:41.907Z,21.70
2019-04-03T02:13:10.571Z,21.70
2019-04-03T02:15:39.451Z,21.70
2019-04-03T02:18:08.668Z,21.70
2019-04-03T02:20:37.696Z,21.70
2019-04-03T02:23:06.356Z,21.70
2019-04-03T02:25:34.995Z,21.60
2019-04-03T02:28:04.460Z,21.60
2019-04-03T02:30:33.336Z,21.60
2019-04-03T02:33:02.136Z,21.60
2019-04-03T02:35:30.845Z,21.60
2019-04-03T02:37:59.491Z,21.60
2019-04-03T02:40:31.348Z,21.60
2019-04-03T02:42:58.525Z,21.60
2019-04-03T02:45:27.176Z,21.50
2019-04-03T02:47:55.846Z,21.50
2019-04-03T02:50:24.677Z,21.50
2019-04-03T02:52:56.919Z,21.50
2019-04-03T02:55:24.775Z,21.50
2019-04-03T02:57:54.163Z,21.50
2019-04-03T03:00:22.861Z,21.50
2019-04-03T03:02:51.714Z,21.50
2019-04-03T03:05:20.546Z,21.50
2019-04-03T03:07:49.218Z,21.50
2019-04-03T03:10:20.142Z,21.50
2019-04-03T03:12:49.140Z,21.40
2019-04-03T03:15:17.802Z,21.40
2019-04-03T03:17:46.507Z,21.50
2019-04-03T03:20:15.399Z,21.50
2019-04-03T03:22:44.161Z,21.50
2019-04-03T03:25:12.822Z,21.40
2019-04-03T03:27:42.534Z,21.40
2019-04-03T03:30:33.227Z,21.40
2019-04-03T03:32:42.211Z,21.40
2019-04-03T03:35:15.712Z,21.40
2019-04-03T03:37:41.798Z,21.40
2019-04-03T03:40:11.192Z,21.40
2019-04-03T03:42:40.243Z,21.40
2019-04-03T03:45:09.290Z,21.40
2019-04-03T03:47:37.947Z,21.40
2019-04-03T03:50:07.433Z,21.40
2019-04-03T03:52:38.319Z,21.40
2019-04-03T03:55:07.656Z,21.40
2019-04-03T03:57:39.242Z,21.40
2019-04-03T04:00:07.870Z,21.40
2019-04-03T04:02:37.979Z,21.30
2019-04-03T04:05:10.657Z,21.30
2019-04-03T04:07:38.324Z,21.30
2019-04-03T04:10:07.670Z,21.30
2019-04-03T04:12:39.785Z,21.30
2019-04-03T04:15:06.709Z,21.30
2019-04-03T04:17:35.340Z,21.20
2019-04-03T04:20:06.283Z,21.20
2019-04-03T04:22:35.051Z,21.20
2019-04-03T04:25:05.639Z,21.20
2019-04-03T04:27:37.876Z,21.20
2019-04-03T04:30:06.196Z,21.20
2019-04-03T04:32:35.508Z,21.10
2019-04-03T04:35:04.643Z,21.10
2019-04-03T04:37:33.291Z,21.10
2019-04-03T04:40:02.209Z,21.10
2019-04-03T04:42:34.368Z,21.10
2019-04-03T04:45:01.925Z,21.10
2019-04-03T04:47:30.582Z,21.10
2019-04-03T04:49:59.233Z,21.10
2019-04-03T04:52:28.247Z,21.10
2019-04-03T04:54:57.294Z,21.00
2019-04-03T04:57:25.982Z,21.10
2019-04-03T04:59:54.654Z,21.00
2019-04-03T05:02:23.541Z,21.00
2019-04-03T05:04:53.880Z,21.00
2019-04-03T05:07:23.713Z,21.00
2019-04-03T05:09:52.533Z,21.00
2019-04-03T05:12:21.177Z,21.00
2019-04-03T05:14:49.901Z,21.00
2019-04-03T05:17:18.586Z,21.00
2019-04-03T05:19:49.005Z,21.00
2019-04-03T05:22:17.719Z,20.90
2019-04-03T05:24:46.493Z,20.90
2019-04-03T05:27:15.178Z,20.90
2019-04-03T05:29:44.030Z,20.90
2019-04-03T05:32:13.509Z,20.90
2019-04-03T05:34:44.089Z,20.90
2019-04-03T05:37:12.776Z,20.90
2019-04-03T05:39:41.606Z,20.90
2019-04-03T05:42:10.328Z,20.90
2019-04-03T05:44:39.079Z,20.90
2019-04-03T05:47:08.552Z,20.90
2019-04-03T05:49:38.037Z,20.90
2019-04-03T05:52:06.722Z,20.90
2019-04-03T05:54:38.608Z,20.90
2019-04-03T05:57:05.864Z,21.00
2019-04-03T05:59:34.552Z,21.00
2019-04-03T06:02:14.286Z,21.00
2019-04-03T06:04:33.813Z,21.10
2019-04-03T06:07:02.490Z,21.10
2019-04-03T06:09:31.401Z,21.10
2019-04-03T06:12:00.122Z,21.10
2019-04-03T06:14:29.062Z,21.20
2019-04-03T06:16:58.347Z,21.30
2019-04-03T06:19:27.178Z,21.30
2019-04-03T06:21:56.590Z,21.30
2019-04-03T06:24:25.310Z,21.40
2019-04-03T06:26:54.042Z,21.40
2019-04-03T06:29:22.697Z,21.60
2019-04-03T06:31:51.359Z,21.60
2019-04-03T06:34:19.991Z,21.70
2019-04-03T06:36:50.989Z,21.80
2019-04-03T06:39:22.362Z,21.90
2019-04-03T06:41:49.486Z,21.90
2019-04-03T06:44:18.428Z,21.90
2019-04-03T06:46:47.177Z,21.90
2019-04-03T06:49:15.820Z,22.00
2019-04-03T06:51:44.782Z,22.00
2019-04-03T06:54:13.512Z,22.00
2019-04-03T06:56:42.213Z,22.10
2019-04-03T06:59:10.874Z,22.10
2019-04-03T07:01:39.580Z,22.10
2019-04-03T07:04:08.312Z,22.00
2019-04-03T07:06:36.979Z,22.00
2019-04-03T07:09:07.865Z,22.10
2019-04-03T07:11:36.563Z,22.20
2019-04-03T07:14:05.214Z,22.20
2019-04-03T07:16:33.950Z,22.20
2019-04-03T07:19:02.591Z,22.20
2019-04-03T07:21:31.320Z,22.20
2019-04-03T07:24:00.915Z,22.20
2019-04-03T07:26:30.431Z,22.20
2019-04-03T07:28:59.078Z,22.10
2019-04-03T07:31:27.818Z,22.10
2019-04-03T07:33:58.161Z,22.00
2019-04-03T07:36:26.870Z,22.00
2019-04-03T07:38:57.895Z,21.90
2019-04-03T07:41:25.924Z,21.90
2019-04-03T07:43:54.769Z,21.90
2019-04-03T07:46:23.909Z,21.90
2019-04-03T07:48:52.551Z,21.90
2019-04-03T07:51:21.452Z,21.90
2019-04-03T07:53:51.257Z,21.90
2019-04-03T07:56:20.367Z,21.90
2019-04-03T07:58:49.041Z,21.90
2019-04-03T08:01:18.824Z,21.90
2019-04-03T08:03:47.863Z,21.90
2019-04-03T08:06:16.721Z,21.80
2019-04-03T08:08:45.747Z,21.80
2019-04-03T08:11:15.274Z,21.80
2019-04-03T08:13:44.772Z,21.80
2019-04-03T08:16:13.770Z,21.80
2019-04-03T08:18:44.132Z,21.80
2019-04-03T08:21:12.789Z,21.80
2019-04-03T08:23:41.621Z,21.80
2019-04-03T08:26:12.190Z,21.80
2019-04-03T08:28:41.542Z,21.80
2019-04-03T08:31:11.523Z,21.80
2019-04-03T08:33:40.637Z,21.80
2019-04-03T08:36:09.415Z,21.70
2019-04-03T08:38:38.083Z,21.70
2019-04-03T08:41:06.800Z,21.70
2019-04-03T08:43:35.593Z,21.70
2019-04-03T08:46:04.658Z,21.60
2019-04-03T08:48:33.330Z,21.60
2019-04-03T08:51:02.998Z,21.60
2019-04-03T08:53:32.542Z,21.70
2019-04-03T08:56:01.901Z,21.60
2019-04-03T08:58:30.696Z,21.60
2019-04-03T09:00:59.381Z,21.60
2019-04-03T09:03:28.755Z,21.60
2019-04-03T09:05:57.495Z,21.60
2019-04-03T09:08:27.159Z,21.70
2019-04-03T09:10:56.482Z,21.70
2019-04-03T09:13:25.128Z,21.70
2019-04-03T09:15:54.369Z,21.70
2019-04-03T09:18:23.874Z,21.60
2019-04-03T09:20:52.575Z,21.60
2019-04-03T09:23:21.412Z,21.60
2019-04-03T09:25:51.578Z,21.60
2019-04-03T09:28:20.498Z,21.60
2019-04-03T09:30:49.155Z,21.60
2019-04-03T09:33:17.945Z,21.60
2019-04-03T09:35:46.594Z,21.60
2019-04-03T09:38:15.245Z,21.60
2019-04-03T09:40:44.082Z,21.60
2019-04-03T09:43:13.012Z,21.60
2019-04-03T09:45:41.682Z,21.60
2019-04-03T09:48:12.308Z,21.60
2019-04-03T09:50:40.691Z,21.60
2019-04-03T09:53:09.354Z,21.60
2019-04-03T09:55:38.291Z,21.60
2019-04-03T09:58:07.016Z,21.60
2019-04-03T10:00:35.746Z,21.60
2019-04-03T10:03:05.938Z,21.60
2019-04-03T10:05:35.014Z,21.60
2019-04-03T10:08:07.592Z,21.60
2019-04-03T10:10:34.784Z,21.60
2019-04-03T10:13:04.163Z,21.60
2019-04-03T10:15:33.028Z,21.60
2019-04-03T10:18:02.042Z,21.50
2019-04-03T10:20:31.319Z,21.50
2019-04-03T10:22:59.992Z,21.50
2019-04-03T10:25:28.633Z,21.50
2019-04-03T10:27:57.982Z,21.50
2019-04-03T10:30:26.623Z,21.50
2019-04-03T10:32:55.275Z,21.50
2019-04-03T10:35:24.008Z,21.50
2019-04-03T10:37:53.023Z,21.60
2019-04-03T10:40:24.260Z,21.50
2019-04-03T10:42:52.888Z,21.50
2019-04-03T10:45:21.528Z,21.50
2019-04-03T10:47:50.190Z,21.50
2019-04-03T10:50:18.845Z,21.50
2019-04-03T10:52:48.728Z,21.50
2019-04-03T10:55:18.209Z,21.50
2019-04-03T10:57:47.664Z,21.50
2019-04-03T11:00:16.596Z,21.50
2019-04-03T11:02:46.168Z,21.50
2019-04-03T11:05:16.132Z,21.50
2019-04-03T11:07:44.897Z,21.50
2019-04-03T11:10:13.546Z,21.50
2019-04-03T11:12:42.267Z,21.50
2019-04-03T11:15:12.393Z,21.50
2019-04-03T11:17:42.025Z,21.50
2019-04-03T11:20:11.894Z,21.50
2019-04-03T11:22:42.664Z,21.50
2019-04-03T11:25:14.771Z,21.50
2019-04-03T11:27:44.805Z,21.40
2019-04-03T11:30:16.422Z,21.40
2019-04-03T11:32:42.755Z,21.40
2019-04-03T11:35:11.724Z,21.40
2019-04-03T11:37:40.639Z,21.40
2019-04-03T11:40:10.578Z,21.40
2019-04-03T11:42:39.611Z,21.40
2019-04-03T11:45:08.262Z,21.40
2019-04-03T11:47:37.075Z,21.40
2019-04-03T11:50:05.870Z,21.40
2019-04-03T11:52:34.537Z,21.40
2019-04-03T11:55:03.603Z,21.40
2019-04-03T11:57:32.999Z,21.40
2019-04-03T12:00:03.242Z,21.50
2019-04-03T12:02:32.348Z,21.40
2019-04-03T12:05:01.102Z,21.40
2019-04-03T12:07:29.742Z,21.40
2019-04-03T12:09:59.408Z,21.40
2019-04-03T12:12:28.461Z,21.40
2019-04-03T12:14:57.775Z,21.40
2019-04-03T12:17:28.785Z,21.40
2019-04-03T12:19:56.833Z,21.40
2019-04-03T12:22:25.471Z,21.40
2019-04-03T12:24:54.138Z,21.40
2019-04-03T12:27:23.099Z,21.40
2019-04-03T12:29:54.352Z,21.40
2019-04-03T12:32:22.796Z,21.40
2019-04-03T12:34:51.442Z,21.40
2019-04-03T12:37:20.567Z,21.50
2019-04-03T12:39:49.787Z,21.40
2019-04-03T12:42:18.773Z,21.40
2019-04-03T12:44:47.866Z,21.50
2019-04-03T12:47:17.186Z,21.50
2019-04-03T12:49:45.942Z,21.50
2019-04-03T12:52:14.598Z,21.50
2019-04-03T12:54:43.530Z,21.50
2019-04-03T12:57:12.183Z,21.50
2019-04-03T12:59:40.896Z,21.50
2019-04-03T13:02:09.812Z,21.50
2019-04-03T13:04:38.540Z,21.50
2019-04-03T13:07:07.416Z,21.50
2019-04-03T13:09:38.398Z,21.50
2019-04-03T13:12:08.650Z,21.40
2019-04-03T13:14:37.753Z,21.40
2019-04-03T13:17:06.459Z,21.40
2019-04-03T13:19:35.435Z,21.40
2019-04-03T13:22:04.199Z,21.40
2019-04-03T13:24:32.920Z,21.40
2019-04-03T13:27:01.601Z,21.40
2019-04-03T13:29:30.636Z,21.40
2019-04-03T13:31:59.608Z,21.40
2019-04-03T13:34:31.197Z,21.40
2019-04-03T13:36:59.286Z,21.40
2019-04-03T13:39:28.030Z,21.40
2019-04-03T13:41:56.683Z,21.40
2019-04-03T13:44:26.967Z,21.50
2019-04-03T13:46:55.747Z,21.40
2019-04-03T13:49:24.700Z,21.40
2019-04-03T13:51:56.312Z,21.40
2019-04-03T13:54:26.211Z,21.40
2019-04-03T13:56:55.217Z,21.40
2019-04-03T13:59:25.794Z,21.40
2019-04-03T14:01:55.311Z,21.40
2019-04-03T14:04:24.902Z,21.40
2019-04-03T14:06:54.415Z,21.40
2019-04-03T14:09:23.104Z,21.40
2019-04-03T14:11:51.759Z,21.40
2019-04-03T14:14:20.444Z,21.40
2019-04-03T14:16:49.097Z,21.40
2019-04-03T14:19:17.785Z,21.40
2019-04-03T14:21:46.545Z,21.40
2019-04-03T14:24:15.254Z,21.40
2019-04-03T14:26:45.185Z,21.40
2019-04-03T14:29:14.622Z,21.40
2019-04-03T14:31:43.724Z,21.40
2019-04-03T14:34:12.366Z,21.40
2019-04-03T14:36:41.407Z,21.40
2019-04-03T14:39:10.246Z,21.40
2019-04-03T14:41:38.900Z,21.40
2019-04-03T14:44:09.146Z,21.40
2019-04-03T14:46:37.959Z,21.40
2019-04-03T14:49:06.780Z,21.40
2019-04-03T14:51:35.653Z,21.40
2019-04-03T14:54:07.759Z,21.40
2019-04-03T14:56:35.964Z,21.40
2019-04-03T14:59:05.372Z,21.40
2019-04-03T15:01:34.077Z,21.40
2019-04-03T15:04:02.924Z,21.40
2019-04-03T15:06:32.202Z,21.30
2019-04-03T15:09:01.339Z,21.30
2019-04-03T15:11:30.920Z,21.30
2019-04-03T15:13:59.834Z,21.30
2019-04-03T15:16:29.329Z,21.30
2019-04-03T15:19:01.935Z,21.30
2019-04-03T15:21:29.827Z,21.30
2019-04-03T15:23:58.810Z,21.30
2019-04-03T15:26:28.133Z,21.30
2019-04-03T15:28:56.984Z,21.30
2019-04-03T15:31:25.636Z,21.30
2019-04-03T15:33:55.747Z,21.30
2019-04-03T15:36:25.063Z,21.30
2019-04-03T15:38:54.370Z,21.30
2019-04-03T15:41:23.304Z,21.30
2019-04-03T15:43:52.120Z,21.30
2019-04-03T15:46:21.503Z,21.30
2019-04-03T15:48:51.048Z,21.30
2019-04-03T15:51:20.983Z,21.30
2019-04-03T15:53:49.675Z,21.30
2019-04-03T15:56:18.963Z,21.30
2019-04-03T15:58:50.556Z,21.20
2019-04-03T16:01:18.273Z,21.20
2019-04-03T16:03:49.600Z,21.20
2019-04-03T16:06:18.094Z,21.20
2019-04-03T16:08:47.896Z,21.20
2019-04-03T16:11:17.307Z,21.20
2019-04-03T16:13:47.053Z,21.20
2019-04-03T16:16:16.423Z,21.20
2019-04-03T16:18:45.561Z,21.20
2019-04-03T16:21:15.033Z,21.20
2019-04-03T16:23:44.429Z,21.20
2019-04-03T16:26:13.166Z,21.20
2019-04-03T16:28:41.971Z,21.20
2019-04-03T16:31:10.947Z,21.20
2019-04-03T16:33:39.933Z,21.20
2019-04-03T16:36:09.146Z,21.20
2019-04-03T16:38:38.231Z,21.20
2019-04-03T16:41:09.137Z,21.20
2019-04-03T16:43:37.651Z,21.20
2019-04-03T16:46:07.961Z,21.20
2019-04-03T16:48:38.554Z,21.20
2019-04-03T16:51:07.152Z,21.20
2019-04-03T16:53:36.371Z,21.10
2019-04-03T16:56:06.534Z,21.20
2019-04-03T16:58:35.273Z,21.10
2019-04-03T17:01:05.282Z,21.10
2019-04-03T17:03:33.975Z,21.10
2019-04-03T17:06:02.627Z,21.10
2019-04-03T17:08:31.522Z,21.10
2019-04-03T17:11:00.514Z,21.10
2019-04-03T17:13:29.178Z,21.10
2019-04-03T17:15:57.861Z,21.10
2019-04-03T17:18:26.999Z,21.10
2019-04-03T17:20:56.906Z,21.10
2019-04-03T17:23:26.126Z,21.10
2019-04-03T17:25:55.207Z,21.10
2019-04-03T17:28:26.282Z,21.00
2019-04-03T17:30:54.812Z,21.10
2019-04-03T17:33:23.990Z,21.00
2019-04-03T17:35:52.642Z,21.00
2019-04-03T17:38:21.551Z,21.00
2019-04-03T17:40:50.438Z,21.00
2019-04-03T17:43:19.086Z,21.00
2019-04-03T17:45:47.735Z,21.00
2019-04-03T17:48:16.479Z,21.00
2019-04-03T17:50:45.174Z,21.00
2019-04-03T17:53:13.824Z,21.00
2019-04-03T17:55:45.191Z,21.00
2019-04-03T17:58:12.886Z,21.00
2019-04-03T18:00:41.699Z,20.90
2019-04-03T18:03:10.363Z,21.00
2019-04-03T18:05:39.047Z,20.90
2019-04-03T18:08:07.768Z,21.00
2019-04-03T18:10:36.795Z,21.00
2019-04-03T18:13:05.418Z,21.00
2019-04-03T18:15:34.243Z,21.00
2019-04-03T18:18:03.379Z,20.90
2019-04-03T18:20:32.662Z,21.00
2019-04-03T18:23:01.348Z,20.90
2019-04-03T18:25:30.023Z,20.90
2019-04-03T18:27:58.711Z,20.90
2019-04-03T18:30:27.367Z,21.00
2019-04-03T18:32:56.106Z,20.90
2019-04-03T18:35:26.196Z,20.90
2019-04-03T18:37:55.197Z,20.90
2019-04-03T18:40:23.912Z,20.90
2019-04-03T18:42:52.632Z,20.90
2019-04-03T18:47:16.082Z,20.90
2019-04-03T18:47:52.201Z,20.90
2019-04-03T18:50:24.342Z,20.90
2019-04-03T18:52:53.147Z,20.90
2019-04-03T18:55:21.823Z,20.90
2019-04-03T18:57:50.748Z,20.90
2019-04-03T19:00:20.201Z,20.90
2019-04-03T19:02:48.875Z,20.90
2019-04-03T19:05:17.515Z,20.90
2019-04-03T19:07:46.869Z,20.90
2019-04-03T19:10:18.290Z,20.80
2019-04-03T19:12:46.507Z,20.80
2019-04-03T19:15:15.216Z,20.80
2019-04-03T19:17:43.924Z,20.80
2019-04-03T19:20:12.597Z,20.80
2019-04-03T19:22:41.250Z,20.80
2019-04-03T19:25:09.914Z,20.80
2019-04-03T19:27:38.576Z,20.80
2019-04-03T19:30:07.861Z,20.80
2019-04-03T19:32:37.113Z,20.80
2019-04-03T19:35:09.232Z,20.80
2019-04-03T19:37:36.998Z,20.80
2019-04-03T19:40:08.998Z,20.80
2019-04-03T19:42:36.142Z,20.80
2019-04-03T19:45:05.223Z,20.80
2019-04-03T19:47:33.895Z,20.80
2019-04-03T19:50:02.542Z,20.80
2019-04-03T19:52:31.376Z,20.70
2019-04-03T19:55:00.726Z,20.70
2019-04-03T19:57:29.383Z,20.70
2019-04-03T19:59:58.103Z,20.80
2019-04-03T20:02:26.805Z,20.70
2019-04-03T20:04:55.545Z,20.70
2019-04-03T20:07:24.802Z,20.70
2019-04-03T20:09:54.567Z,20.70
2019-04-03T20:12:23.313Z,20.70
2019-04-03T20:14:57.877Z,20.70
2019-04-03T20:17:22.742Z,20.70
2019-04-03T20:19:52.799Z,20.70
2019-04-03T20:22:21.480Z,20.70
2019-04-03T20:24:59.469Z,20.70
2019-04-03T20:27:20.528Z,20.60
2019-04-03T20:29:49.186Z,20.60
2019-04-03T20:32:17.842Z,20.60
2019-04-03T20:34:46.662Z,20.60
2019-04-03T20:37:15.316Z,20.60
2019-04-03T20:39:43.974Z,20.60
2019-04-03T20:42:12.668Z,20.60
2019-04-03T20:44:41.379Z,20.60
2019-04-03T20:47:10.038Z,20.60
2019-04-03T20:49:38.704Z,20.60
2019-04-03T20:52:10.866Z,20.60
2019-04-03T20:54:37.730Z,20.60
2019-04-03T20:57:06.391Z,20.60
2019-04-03T20:59:35.027Z,20.60
2019-04-03T21:02:03.781Z,20.60
2019-04-03T21:04:32.507Z,20.60
2019-04-03T21:07:01.133Z,20.60
2019-04-03T21:09:30.444Z,20.60
2019-04-03T21:11:59.330Z,20.50
2019-04-03T21:14:27.989Z,20.60
2019-04-03T21:16:56.632Z,20.60
2019-04-03T21:19:25.950Z,20.50
2019-04-03T21:21:54.602Z,20.50
2019-04-03T21:24:23.263Z,20.50
2019-04-03T21:26:51.935Z,20.50
2019-04-03T21:29:20.604Z,20.60
2019-04-03T21:31:49.255Z,20.50
2019-04-03T21:34:17.889Z,20.50
2019-04-03T21:36:46.548Z,20.50
2019-04-03T21:39:15.170Z,20.50
2019-04-03T21:41:44.854Z,20.50
2019-04-03T21:44:13.507Z,20.50
2019-04-03T21:46:42.245Z,20.50
2019-04-03T21:49:10.958Z,20.50
2019-04-03T21:51:39.636Z,20.40
2019-04-03T21:54:08.300Z,20.40
2019-04-03T21:56:36.963Z,20.40
2019-04-03T21:59:05.697Z,20.40
2019-04-03T22:01:34.343Z,20.40
2019-04-03T22:04:02.998Z,20.40
2019-04-03T22:06:31.700Z,20.40
2019-04-03T22:09:00.740Z,20.40
2019-04-03T22:11:30.083Z,20.40
2019-04-03T22:13:58.806Z,20.40
2019-04-03T22:16:27.457Z,20.40
2019-04-03T22:18:56.110Z,20.40
2019-04-03T22:21:24.756Z,20.40
2019-04-03T22:23:53.470Z,20.40
2019-04-03T22:26:22.149Z,20.40
2019-04-03T22:28:50.784Z,20.40
2019-04-03T22:31:20.974Z,20.40
2019-04-03T22:33:49.793Z,20.40
2019-04-03T22:36:18.427Z,20.40
2019-04-03T22:38:47.070Z,20.40
2019-04-03T22:41:15.731Z,20.30
2019-04-03T22:43:46.201Z,20.30
2019-04-03T22:46:14.745Z,20.40
2019-04-03T22:48:43.387Z,20.30
2019-04-03T22:51:12.030Z,20.30
2019-04-03T22:53:41.701Z,20.30
2019-04-03T22:56:10.859Z,20.30
2019-04-03T22:58:39.503Z,20.30
2019-04-03T23:01:08.143Z,20.30
2019-04-03T23:03:36.852Z,20.30
2019-04-03T23:06:05.531Z,20.30
2019-04-03T23:08:34.198Z,20.30
2019-04-03T23:11:03.203Z,20.30
2019-04-03T23:13:31.859Z,20.30
2019-04-03T23:16:00.523Z,20.30
2019-04-03T23:18:29.184Z,20.30
2019-04-03T23:20:57.837Z,20.30
2019-04-03T23:23:27.589Z,20.30
2019-04-03T23:25:56.902Z,20.30
2019-04-03T23:28:25.626Z,20.30
2019-04-03T23:30:54.279Z,20.20
2019-04-03T23:33:22.963Z,20.20
2019-04-03T23:35:51.693Z,20.30
2019-04-03T23:38:20.331Z,20.20
2019-04-03T23:40:49.125Z,20.20
2019-04-03T23:43:17.773Z,20.20
2019-04-03T23:45:46.458Z,20.20
2019-04-03T23:48:17.591Z,20.20
2019-04-03T23:50:45.669Z,20.20
2019-04-03T23:53:14.348Z,20.20
2019-04-03T23:55:42.985Z,20.20
2019-04-03T23:58:11.627Z,20.20
